sensor_id;sensor_type;location;lat;lon;timestamp;P1;durP1;ratioP1;P2;durP2;ratioP2
69937;SDS011;57248;47.320;15.998;2022-07-25T00:02:01;11.63;;;7.75;;
69937;SDS011;57248;47.320;15.998;2022-07-25T00:04:27;11.57;;;7.80;;
69937;SDS011;57248;47.320;15.998;2022-07-25T00:06:52;12.77;;;7.40;;
69937;SDS011;57248;47.320;15.998;2022-07-25T00:09:18;10.52;;;7.75;;
69937;SDS011;57248;47.320;15.998;2022-07-25T00:11:43;12.50;;;8.00;;
69937;SDS011;57248;47.320;15.998;2022-07-25T00:14:09;11.53;;;7.17;;
69937;SDS011;57248;47.320;15.998;2022-07-25T00:16:34;11.25;;;7.35;;
69937;SDS011;57248;47.320;15.998;2022-07-25T00:19:00;12.93;;;7.73;;
69937;SDS011;57248;47.320;15.998;2022-07-25T00:21:25;12.30;;;7.30;;
69937;SDS011;57248;47.320;15.998;2022-07-25T00:23:51;13.27;;;7.27;;
69937;SDS011;57248;47.320;15.998;2022-07-25T00:26:16;14.10;;;7.40;;
69937;SDS011;57248;47.320;15.998;2022-07-25T00:28:42;10.43;;;7.45;;
69937;SDS011;57248;47.320;15.998;2022-07-25T00:31:08;10.33;;;7.13;;
69937;SDS011;57248;47.320;15.998;2022-07-25T00:33:33;11.25;;;7.28;;
69937;SDS011;57248;47.320;15.998;2022-07-25T00:35:59;10.40;;;6.83;;
69937;SDS011;57248;47.320;15.998;2022-07-25T00:38:25;11.00;;;6.72;;
69937;SDS011;57248;47.320;15.998;2022-07-25T00:40:50;11.53;;;7.27;;
69937;SDS011;57248;47.320;15.998;2022-07-25T00:43:16;9.60;;;6.87;;
69937;SDS011;57248;47.320;15.998;2022-07-25T00:45:41;12.10;;;7.30;;
69937;SDS011;57248;47.320;15.998;2022-07-25T00:48:07;9.40;;;6.70;;
69937;SDS011;57248;47.320;15.998;2022-07-25T00:50:33;10.98;;;6.60;;
69937;SDS011;57248;47.320;15.998;2022-07-25T00:52:59;10.13;;;6.72;;
69937;SDS011;57248;47.320;15.998;2022-07-25T00:55:25;9.57;;;6.53;;
69937;SDS011;57248;47.320;15.998;2022-07-25T00:57:51;10.80;;;6.82;;
69937;SDS011;57248;47.320;15.998;2022-07-25T01:00:16;10.20;;;6.60;;
69937;SDS011;57248;47.320;15.998;2022-07-25T01:02:43;10.90;;;7.20;;
69937;SDS011;57248;47.320;15.998;2022-07-25T01:05:09;9.85;;;6.72;;
69937;SDS011;57248;47.320;15.998;2022-07-25T01:07:36;8.68;;;6.30;;
69937;SDS011;57248;47.320;15.998;2022-07-25T01:10:03;9.68;;;7.05;;
69937;SDS011;57248;47.320;15.998;2022-07-25T01:12:29;9.90;;;6.73;;
69937;SDS011;57248;47.320;15.998;2022-07-25T01:14:55;10.65;;;6.93;;
69937;SDS011;57248;47.320;15.998;2022-07-25T01:17:22;10.43;;;7.32;;
69937;SDS011;57248;47.320;15.998;2022-07-25T01:19:47;9.27;;;6.67;;
69937;SDS011;57248;47.320;15.998;2022-07-25T01:22:15;10.20;;;7.18;;
69937;SDS011;57248;47.320;15.998;2022-07-25T01:24:41;10.20;;;6.65;;
69937;SDS011;57248;47.320;15.998;2022-07-25T01:27:06;9.90;;;6.67;;
69937;SDS011;57248;47.320;15.998;2022-07-25T01:29:32;10.67;;;6.93;;
69937;SDS011;57248;47.320;15.998;2022-07-25T01:31:57;10.05;;;7.03;;
69937;SDS011;57248;47.320;15.998;2022-07-25T01:34:22;11.97;;;7.10;;
69937;SDS011;57248;47.320;15.998;2022-07-25T01:36:48;10.83;;;7.30;;
69937;SDS011;57248;47.320;15.998;2022-07-25T01:39:13;11.20;;;6.70;;
69937;SDS011;57248;47.320;15.998;2022-07-25T01:41:39;12.70;;;6.90;;
69937;SDS011;57248;47.320;15.998;2022-07-25T01:44:04;10.03;;;7.07;;
69937;SDS011;57248;47.320;15.998;2022-07-25T01:46:30;13.43;;;7.20;;
69937;SDS011;57248;47.320;15.998;2022-07-25T01:48:55;11.07;;;7.43;;
69937;SDS011;57248;47.320;15.998;2022-07-25T01:51:21;10.77;;;6.63;;
69937;SDS011;57248;47.320;15.998;2022-07-25T01:53:46;12.10;;;6.90;;
69937;SDS011;57248;47.320;15.998;2022-07-25T01:56:12;9.70;;;6.87;;
69937;SDS011;57248;47.320;15.998;2022-07-25T01:58:38;9.83;;;6.73;;
69937;SDS011;57248;47.320;15.998;2022-07-25T02:01:03;10.48;;;6.40;;
69937;SDS011;57248;47.320;15.998;2022-07-25T02:03:30;10.55;;;6.93;;
69937;SDS011;57248;47.320;15.998;2022-07-25T02:05:57;9.60;;;6.43;;
69937;SDS011;57248;47.320;15.998;2022-07-25T02:08:24;9.52;;;6.57;;
69937;SDS011;57248;47.320;15.998;2022-07-25T02:10:50;9.97;;;6.63;;
69937;SDS011;57248;47.320;15.998;2022-07-25T02:13:15;11.87;;;6.20;;
69937;SDS011;57248;47.320;15.998;2022-07-25T02:15:41;10.80;;;6.57;;
69937;SDS011;57248;47.320;15.998;2022-07-25T02:18:06;11.43;;;6.77;;
69937;SDS011;57248;47.320;15.998;2022-07-25T02:20:32;10.30;;;7.05;;
69937;SDS011;57248;47.320;15.998;2022-07-25T02:22:57;10.27;;;6.60;;
69937;SDS011;57248;47.320;15.998;2022-07-25T02:25:23;10.17;;;7.10;;
69937;SDS011;57248;47.320;15.998;2022-07-25T02:27:49;9.52;;;6.60;;
69937;SDS011;57248;47.320;15.998;2022-07-25T02:30:14;12.07;;;6.97;;
69937;SDS011;57248;47.320;15.998;2022-07-25T02:32:40;10.35;;;7.13;;
69937;SDS011;57248;47.320;15.998;2022-07-25T02:35:05;9.77;;;6.63;;
69937;SDS011;57248;47.320;15.998;2022-07-25T02:37:31;10.60;;;6.82;;
69937;SDS011;57248;47.320;15.998;2022-07-25T02:39:57;9.80;;;6.60;;
69937;SDS011;57248;47.320;15.998;2022-07-25T02:42:23;11.20;;;7.10;;
69937;SDS011;57248;47.320;15.998;2022-07-25T02:44:49;9.97;;;6.67;;
69937;SDS011;57248;47.320;15.998;2022-07-25T02:47:14;10.18;;;6.90;;
69937;SDS011;57248;47.320;15.998;2022-07-25T02:49:40;11.27;;;6.80;;
69937;SDS011;57248;47.320;15.998;2022-07-25T02:52:05;10.03;;;6.47;;
69937;SDS011;57248;47.320;15.998;2022-07-25T02:54:31;9.98;;;6.85;;
69937;SDS011;57248;47.320;15.998;2022-07-25T02:56:56;10.53;;;7.00;;
69937;SDS011;57248;47.320;15.998;2022-07-25T02:59:22;10.67;;;6.80;;
69937;SDS011;57248;47.320;15.998;2022-07-25T03:01:47;11.45;;;7.10;;
69937;SDS011;57248;47.320;15.998;2022-07-25T03:04:13;10.43;;;6.23;;
69937;SDS011;57248;47.320;15.998;2022-07-25T03:06:38;10.17;;;6.70;;
69937;SDS011;57248;47.320;15.998;2022-07-25T03:09:04;10.50;;;6.83;;
69937;SDS011;57248;47.320;15.998;2022-07-25T03:11:29;9.93;;;6.70;;
69937;SDS011;57248;47.320;15.998;2022-07-25T03:13:54;10.30;;;6.70;;
69937;SDS011;57248;47.320;15.998;2022-07-25T03:16:20;10.90;;;6.57;;
69937;SDS011;57248;47.320;15.998;2022-07-25T03:18:45;10.80;;;6.90;;
69937;SDS011;57248;47.320;15.998;2022-07-25T03:21:11;10.77;;;6.50;;
69937;SDS011;57248;47.320;15.998;2022-07-25T03:23:36;9.37;;;6.43;;
69937;SDS011;57248;47.320;15.998;2022-07-25T03:26:02;11.15;;;6.72;;
69937;SDS011;57248;47.320;15.998;2022-07-25T03:28:28;9.75;;;6.68;;
69937;SDS011;57248;47.320;15.998;2022-07-25T03:30:54;12.00;;;6.57;;
69937;SDS011;57248;47.320;15.998;2022-07-25T03:33:21;9.43;;;5.80;;
69937;SDS011;57248;47.320;15.998;2022-07-25T03:35:46;10.70;;;6.15;;
69937;SDS011;57248;47.320;15.998;2022-07-25T03:38:12;11.15;;;6.25;;
69937;SDS011;57248;47.320;15.998;2022-07-25T03:40:38;10.13;;;6.23;;
69937;SDS011;57248;47.320;15.998;2022-07-25T03:43:04;9.80;;;6.78;;
69937;SDS011;57248;47.320;15.998;2022-07-25T03:45:29;10.43;;;6.37;;
69937;SDS011;57248;47.320;15.998;2022-07-25T03:47:55;11.63;;;6.60;;
69937;SDS011;57248;47.320;15.998;2022-07-25T03:50:20;11.73;;;6.57;;
69937;SDS011;57248;47.320;15.998;2022-07-25T03:52:46;11.40;;;6.67;;
69937;SDS011;57248;47.320;15.998;2022-07-25T03:55:11;9.82;;;6.22;;
69937;SDS011;57248;47.320;15.998;2022-07-25T03:57:37;10.93;;;6.53;;
69937;SDS011;57248;47.320;15.998;2022-07-25T04:00:04;10.95;;;6.57;;
69937;SDS011;57248;47.320;15.998;2022-07-25T04:02:31;11.32;;;6.30;;
69937;SDS011;57248;47.320;15.998;2022-07-25T04:04:57;13.07;;;7.10;;
69937;SDS011;57248;47.320;15.998;2022-07-25T04:07:22;9.88;;;6.68;;
69937;SDS011;57248;47.320;15.998;2022-07-25T04:09:48;9.87;;;6.57;;
69937;SDS011;57248;47.320;15.998;2022-07-25T04:12:13;11.13;;;6.13;;
69937;SDS011;57248;47.320;15.998;2022-07-25T04:14:39;10.80;;;6.53;;
69937;SDS011;57248;47.320;15.998;2022-07-25T04:17:04;10.97;;;6.80;;
69937;SDS011;57248;47.320;15.998;2022-07-25T04:19:30;10.43;;;6.50;;
69937;SDS011;57248;47.320;15.998;2022-07-25T04:21:56;9.85;;;6.50;;
69937;SDS011;57248;47.320;15.998;2022-07-25T04:24:21;9.87;;;6.47;;
69937;SDS011;57248;47.320;15.998;2022-07-25T04:26:47;9.82;;;6.65;;
69937;SDS011;57248;47.320;15.998;2022-07-25T04:29:12;10.00;;;6.30;;
69937;SDS011;57248;47.320;15.998;2022-07-25T04:31:38;9.70;;;6.63;;
69937;SDS011;57248;47.320;15.998;2022-07-25T04:34:03;11.38;;;6.75;;
69937;SDS011;57248;47.320;15.998;2022-07-25T04:36:29;10.13;;;6.70;;
69937;SDS011;57248;47.320;15.998;2022-07-25T04:38:55;9.82;;;6.63;;
69937;SDS011;57248;47.320;15.998;2022-07-25T04:41:20;10.50;;;6.77;;
69937;SDS011;57248;47.320;15.998;2022-07-25T04:43:47;11.10;;;7.40;;
69937;SDS011;57248;47.320;15.998;2022-07-25T04:46:16;10.60;;;6.67;;
69937;SDS011;57248;47.320;15.998;2022-07-25T04:48:42;17.33;;;9.35;;
69937;SDS011;57248;47.320;15.998;2022-07-25T04:51:08;12.13;;;7.73;;
69937;SDS011;57248;47.320;15.998;2022-07-25T04:53:34;15.00;;;8.45;;
69937;SDS011;57248;47.320;15.998;2022-07-25T04:56:00;12.40;;;7.87;;
69937;SDS011;57248;47.320;15.998;2022-07-25T04:58:25;10.80;;;7.50;;
69937;SDS011;57248;47.320;15.998;2022-07-25T05:00:51;12.37;;;7.63;;
69937;SDS011;57248;47.320;15.998;2022-07-25T05:03:16;12.93;;;8.10;;
69937;SDS011;57248;47.320;15.998;2022-07-25T05:05:42;11.45;;;7.50;;
69937;SDS011;57248;47.320;15.998;2022-07-25T05:08:07;11.70;;;7.00;;
69937;SDS011;57248;47.320;15.998;2022-07-25T05:10:33;10.10;;;6.87;;
69937;SDS011;57248;47.320;15.998;2022-07-25T05:12:58;10.32;;;7.60;;
69937;SDS011;57248;47.320;15.998;2022-07-25T05:15:24;10.67;;;7.30;;
69937;SDS011;57248;47.320;15.998;2022-07-25T05:17:50;14.07;;;8.40;;
69937;SDS011;57248;47.320;15.998;2022-07-25T05:20:16;40.83;;;15.47;;
69937;SDS011;57248;47.320;15.998;2022-07-25T05:22:41;18.52;;;11.32;;
69937;SDS011;57248;47.320;15.998;2022-07-25T05:25:08;12.17;;;7.97;;
69937;SDS011;57248;47.320;15.998;2022-07-25T05:27:34;11.57;;;7.85;;
69937;SDS011;57248;47.320;15.998;2022-07-25T05:30:00;14.77;;;10.35;;
69937;SDS011;57248;47.320;15.998;2022-07-25T05:32:26;12.47;;;10.00;;
69937;SDS011;57248;47.320;15.998;2022-07-25T05:34:51;11.63;;;9.10;;
69937;SDS011;57248;47.320;15.998;2022-07-25T05:37:18;11.90;;;8.37;;
69937;SDS011;57248;47.320;15.998;2022-07-25T05:39:44;13.98;;;8.30;;
69937;SDS011;57248;47.320;15.998;2022-07-25T05:42:09;11.40;;;9.00;;
69937;SDS011;57248;47.320;15.998;2022-07-25T05:44:35;10.73;;;9.05;;
69937;SDS011;57248;47.320;15.998;2022-07-25T05:47:00;10.80;;;8.27;;
69937;SDS011;57248;47.320;15.998;2022-07-25T05:49:26;11.00;;;8.63;;
69937;SDS011;57248;47.320;15.998;2022-07-25T05:51:52;11.02;;;8.95;;
69937;SDS011;57248;47.320;15.998;2022-07-25T05:54:17;11.17;;;9.40;;
69937;SDS011;57248;47.320;15.998;2022-07-25T05:56:43;11.68;;;9.40;;
69937;SDS011;57248;47.320;15.998;2022-07-25T05:59:08;10.67;;;9.20;;
69937;SDS011;57248;47.320;15.998;2022-07-25T06:01:34;11.93;;;9.33;;
69937;SDS011;57248;47.320;15.998;2022-07-25T06:03:59;12.23;;;9.98;;
69937;SDS011;57248;47.320;15.998;2022-07-25T06:06:25;10.10;;;9.00;;
69937;SDS011;57248;47.320;15.998;2022-07-25T06:08:50;9.63;;;8.07;;
69937;SDS011;57248;47.320;15.998;2022-07-25T06:11:16;11.02;;;8.43;;
69937;SDS011;57248;47.320;15.998;2022-07-25T06:13:42;9.10;;;7.97;;
69937;SDS011;57248;47.320;15.998;2022-07-25T06:16:08;8.73;;;7.40;;
69937;SDS011;57248;47.320;15.998;2022-07-25T06:18:33;10.03;;;8.30;;
69937;SDS011;57248;47.320;15.998;2022-07-25T06:20:59;9.27;;;7.47;;
69937;SDS011;57248;47.320;15.998;2022-07-25T06:23:24;8.40;;;7.50;;
69937;SDS011;57248;47.320;15.998;2022-07-25T06:25:50;8.55;;;7.32;;
69937;SDS011;57248;47.320;15.998;2022-07-25T06:28:15;8.80;;;7.57;;
69937;SDS011;57248;47.320;15.998;2022-07-25T06:30:41;10.53;;;8.07;;
69937;SDS011;57248;47.320;15.998;2022-07-25T06:33:08;9.18;;;8.20;;
69937;SDS011;57248;47.320;15.998;2022-07-25T06:35:35;8.93;;;7.85;;
69937;SDS011;57248;47.320;15.998;2022-07-25T06:38:00;8.63;;;7.73;;
69937;SDS011;57248;47.320;15.998;2022-07-25T06:40:26;9.65;;;7.85;;
69937;SDS011;57248;47.320;15.998;2022-07-25T06:42:54;8.52;;;7.70;;
69937;SDS011;57248;47.320;15.998;2022-07-25T06:45:20;8.07;;;7.28;;
69937;SDS011;57248;47.320;15.998;2022-07-25T06:47:46;8.63;;;7.50;;
69937;SDS011;57248;47.320;15.998;2022-07-25T06:50:12;10.20;;;7.90;;
69937;SDS011;57248;47.320;15.998;2022-07-25T06:52:39;9.27;;;7.32;;
69937;SDS011;57248;47.320;15.998;2022-07-25T06:55:06;8.55;;;7.75;;
69937;SDS011;57248;47.320;15.998;2022-07-25T06:57:33;10.53;;;8.40;;
69937;SDS011;57248;47.320;15.998;2022-07-25T06:59:59;9.25;;;7.18;;
69937;SDS011;57248;47.320;15.998;2022-07-25T07:02:25;9.77;;;7.88;;
69937;SDS011;57248;47.320;15.998;2022-07-25T07:04:50;12.37;;;7.80;;
69937;SDS011;57248;47.320;15.998;2022-07-25T07:07:16;8.27;;;7.47;;
69937;SDS011;57248;47.320;15.998;2022-07-25T07:09:42;9.07;;;7.80;;
69937;SDS011;57248;47.320;15.998;2022-07-25T07:12:08;8.30;;;7.50;;
69937;SDS011;57248;47.320;15.998;2022-07-25T07:14:35;9.38;;;8.48;;
69937;SDS011;57248;47.320;15.998;2022-07-25T07:17:02;9.85;;;8.35;;
69937;SDS011;57248;47.320;15.998;2022-07-25T07:19:28;10.18;;;9.18;;
69937;SDS011;57248;47.320;15.998;2022-07-25T07:21:54;10.27;;;9.17;;
69937;SDS011;57248;47.320;15.998;2022-07-25T07:24:20;10.07;;;9.07;;
69937;SDS011;57248;47.320;15.998;2022-07-25T07:26:45;9.60;;;8.80;;
69937;SDS011;57248;47.320;15.998;2022-07-25T07:29:10;9.87;;;8.97;;
69937;SDS011;57248;47.320;15.998;2022-07-25T07:31:36;8.97;;;8.27;;
69937;SDS011;57248;47.320;15.998;2022-07-25T07:34:01;8.85;;;8.05;;
69937;SDS011;57248;47.320;15.998;2022-07-25T07:36:27;9.60;;;8.70;;
69937;SDS011;57248;47.320;15.998;2022-07-25T07:38:53;10.18;;;9.27;;
69937;SDS011;57248;47.320;15.998;2022-07-25T07:41:19;9.82;;;8.82;;
69937;SDS011;57248;47.320;15.998;2022-07-25T07:43:45;8.90;;;8.10;;
69937;SDS011;57248;47.320;15.998;2022-07-25T07:46:11;9.93;;;8.98;;
69937;SDS011;57248;47.320;15.998;2022-07-25T07:48:37;10.57;;;9.57;;
69937;SDS011;57248;47.320;15.998;2022-07-25T07:51:03;10.73;;;9.27;;
69937;SDS011;57248;47.320;15.998;2022-07-25T07:53:29;11.00;;;10.10;;
69937;SDS011;57248;47.320;15.998;2022-07-25T07:56:14;12.77;;;11.73;;
69937;SDS011;57248;47.320;15.998;2022-07-25T07:58:42;12.57;;;11.27;;
69937;SDS011;57248;47.320;15.998;2022-07-25T08:01:09;13.13;;;11.60;;
69937;SDS011;57248;47.320;15.998;2022-07-25T08:03:35;12.77;;;11.77;;
69937;SDS011;57248;47.320;15.998;2022-07-25T08:06:01;12.73;;;11.70;;
69937;SDS011;57248;47.320;15.998;2022-07-25T08:08:27;13.02;;;11.93;;
69937;SDS011;57248;47.320;15.998;2022-07-25T08:10:52;13.80;;;12.43;;
69937;SDS011;57248;47.320;15.998;2022-07-25T08:13:20;13.57;;;12.48;;
69937;SDS011;57248;47.320;15.998;2022-07-25T08:15:52;13.82;;;12.68;;
69937;SDS011;57248;47.320;15.998;2022-07-25T08:18:22;13.23;;;12.20;;
69937;SDS011;57248;47.320;15.998;2022-07-25T08:20:48;12.75;;;11.57;;
69937;SDS011;57248;47.320;15.998;2022-07-25T08:23:13;13.52;;;12.43;;
69937;SDS011;57248;47.320;15.998;2022-07-25T08:25:40;13.93;;;12.73;;
69937;SDS011;57248;47.320;15.998;2022-07-25T08:28:06;12.85;;;11.75;;
69937;SDS011;57248;47.320;15.998;2022-07-25T08:30:32;14.27;;;13.18;;
69937;SDS011;57248;47.320;15.998;2022-07-25T08:32:59;14.93;;;13.83;;
69937;SDS011;57248;47.320;15.998;2022-07-25T08:35:28;14.93;;;13.80;;
69937;SDS011;57248;47.320;15.998;2022-07-25T08:37:54;15.57;;;14.38;;
69937;SDS011;57248;47.320;15.998;2022-07-25T08:40:21;14.80;;;13.70;;
69937;SDS011;57248;47.320;15.998;2022-07-25T08:42:49;14.90;;;13.70;;
69937;SDS011;57248;47.320;15.998;2022-07-25T08:45:16;14.63;;;13.53;;
69937;SDS011;57248;47.320;15.998;2022-07-25T08:47:43;15.50;;;14.30;;
69937;SDS011;57248;47.320;15.998;2022-07-25T08:50:12;14.65;;;13.45;;
69937;SDS011;57248;47.320;15.998;2022-07-25T08:52:41;14.05;;;12.95;;
69937;SDS011;57248;47.320;15.998;2022-07-25T08:55:09;14.88;;;13.73;;
69937;SDS011;57248;47.320;15.998;2022-07-25T08:57:39;13.80;;;12.70;;
69937;SDS011;57248;47.320;15.998;2022-07-25T09:00:08;14.75;;;13.55;;
69937;SDS011;57248;47.320;15.998;2022-07-25T09:02:35;14.07;;;12.98;;
69937;SDS011;57248;47.320;15.998;2022-07-25T09:05:01;14.33;;;13.20;;
69937;SDS011;57248;47.320;15.998;2022-07-25T09:07:28;13.60;;;12.50;;
69937;SDS011;57248;47.320;15.998;2022-07-25T09:10:16;13.77;;;12.57;;
69937;SDS011;57248;47.320;15.998;2022-07-25T09:13:17;15.07;;;13.88;;
69937;SDS011;57248;47.320;15.998;2022-07-25T09:15:43;15.00;;;13.80;;
69937;SDS011;57248;47.320;15.998;2022-07-25T09:18:14;15.17;;;13.93;;
69937;SDS011;57248;47.320;15.998;2022-07-25T09:20:43;14.63;;;13.52;;
69937;SDS011;57248;47.320;15.998;2022-07-25T09:23:13;14.07;;;12.95;;
69937;SDS011;57248;47.320;15.998;2022-07-25T09:25:50;16.10;;;14.90;;
69937;SDS011;57248;47.320;15.998;2022-07-25T09:28:16;14.50;;;13.37;;
69937;SDS011;57248;47.320;15.998;2022-07-25T09:30:57;14.98;;;13.77;;
69937;SDS011;57248;47.320;15.998;2022-07-25T09:33:25;15.15;;;13.93;;
69937;SDS011;57248;47.320;15.998;2022-07-25T09:35:53;15.27;;;13.97;;
69937;SDS011;57248;47.320;15.998;2022-07-25T09:38:20;14.30;;;13.10;;
69937;SDS011;57248;47.320;15.998;2022-07-25T09:40:59;16.77;;;15.43;;
69937;SDS011;57248;47.320;15.998;2022-07-25T09:43:39;16.55;;;15.20;;
69937;SDS011;57248;47.320;15.998;2022-07-25T09:46:07;16.30;;;14.98;;
69937;SDS011;57248;47.320;15.998;2022-07-25T09:48:34;16.53;;;15.07;;
69937;SDS011;57248;47.320;15.998;2022-07-25T09:51:00;17.90;;;16.40;;
69937;SDS011;57248;47.320;15.998;2022-07-25T09:53:26;17.25;;;16.05;;
69937;SDS011;57248;47.320;15.998;2022-07-25T09:55:53;16.17;;;14.88;;
69937;SDS011;57248;47.320;15.998;2022-07-25T09:58:21;16.50;;;15.20;;
69937;SDS011;57248;47.320;15.998;2022-07-25T10:00:47;15.93;;;14.77;;
69937;SDS011;57248;47.320;15.998;2022-07-25T10:08:38;17.42;;;16.10;;
69937;SDS011;57248;47.320;15.998;2022-07-25T10:11:16;17.90;;;16.38;;
69937;SDS011;57248;47.320;15.998;2022-07-25T10:13:46;18.43;;;17.13;;
69937;SDS011;57248;47.320;15.998;2022-07-25T10:16:30;17.38;;;16.08;;
69937;SDS011;57248;47.320;15.998;2022-07-25T10:18:56;17.88;;;16.35;;
69937;SDS011;57248;47.320;15.998;2022-07-25T10:21:23;19.17;;;17.67;;
69937;SDS011;57248;47.320;15.998;2022-07-25T10:23:59;18.13;;;16.70;;
69937;SDS011;57248;47.320;15.998;2022-07-25T10:26:29;16.98;;;15.57;;
69937;SDS011;57248;47.320;15.998;2022-07-25T10:28:56;17.85;;;16.50;;
69937;SDS011;57248;47.320;15.998;2022-07-25T10:31:42;15.02;;;13.82;;
69937;SDS011;57248;47.320;15.998;2022-07-25T10:34:10;17.70;;;16.40;;
69937;SDS011;57248;47.320;15.998;2022-07-25T10:36:45;16.10;;;14.80;;
69937;SDS011;57248;47.320;15.998;2022-07-25T10:39:13;15.40;;;14.20;;
69937;SDS011;57248;47.320;15.998;2022-07-25T10:41:55;17.75;;;16.35;;
69937;SDS011;57248;47.320;15.998;2022-07-25T10:44:27;16.30;;;15.00;;
69937;SDS011;57248;47.320;15.998;2022-07-25T10:47:04;16.70;;;15.30;;
69937;SDS011;57248;47.320;15.998;2022-07-25T10:49:34;15.77;;;14.37;;
69937;SDS011;57248;47.320;15.998;2022-07-25T10:52:02;17.33;;;16.02;;
69937;SDS011;57248;47.320;15.998;2022-07-25T10:54:35;17.75;;;16.45;;
69937;SDS011;57248;47.320;15.998;2022-07-25T10:57:03;15.60;;;14.40;;
69937;SDS011;57248;47.320;15.998;2022-07-25T10:59:33;16.20;;;15.02;;
69937;SDS011;57248;47.320;15.998;2022-07-25T11:02:02;15.20;;;14.00;;
69937;SDS011;57248;47.320;15.998;2022-07-25T11:04:29;14.48;;;13.38;;
69937;SDS011;57248;47.320;15.998;2022-07-25T11:06:55;16.15;;;14.95;;
69937;SDS011;57248;47.320;15.998;2022-07-25T11:09:22;17.50;;;16.10;;
69937;SDS011;57248;47.320;15.998;2022-07-25T11:11:50;18.70;;;17.40;;
69937;SDS011;57248;47.320;15.998;2022-07-25T11:14:21;16.13;;;14.83;;
69937;SDS011;57248;47.320;15.998;2022-07-25T11:17:08;16.52;;;15.25;;
69937;SDS011;57248;47.320;15.998;2022-07-25T11:19:39;17.73;;;16.30;;
69937;SDS011;57248;47.320;15.998;2022-07-25T11:22:07;15.80;;;14.52;;
69937;SDS011;57248;47.320;15.998;2022-07-25T11:24:43;17.95;;;16.48;;
69937;SDS011;57248;47.320;15.998;2022-07-25T11:27:10;18.80;;;17.33;;
69937;SDS011;57248;47.320;15.998;2022-07-25T11:29:44;17.08;;;15.88;;
69937;SDS011;57248;47.320;15.998;2022-07-25T11:32:10;18.63;;;17.23;;
69937;SDS011;57248;47.320;15.998;2022-07-25T11:34:38;17.57;;;16.27;;
69937;SDS011;57248;47.320;15.998;2022-07-25T11:37:08;18.08;;;16.65;;
69937;SDS011;57248;47.320;15.998;2022-07-25T11:39:36;18.20;;;16.75;;
69937;SDS011;57248;47.320;15.998;2022-07-25T11:42:04;18.63;;;17.17;;
69937;SDS011;57248;47.320;15.998;2022-07-25T11:44:38;18.52;;;17.15;;
69937;SDS011;57248;47.320;15.998;2022-07-25T11:47:06;18.93;;;17.63;;
69937;SDS011;57248;47.320;15.998;2022-07-25T11:49:49;17.95;;;16.75;;
69937;SDS011;57248;47.320;15.998;2022-07-25T11:52:21;17.75;;;16.23;;
69937;SDS011;57248;47.320;15.998;2022-07-25T11:54:49;16.60;;;15.30;;
69937;SDS011;57248;47.320;15.998;2022-07-25T11:57:22;18.17;;;16.88;;
69937;SDS011;57248;47.320;15.998;2022-07-25T11:59:53;18.87;;;17.37;;
69937;SDS011;57248;47.320;15.998;2022-07-25T12:02:26;17.77;;;16.27;;
69937;SDS011;57248;47.320;15.998;2022-07-25T12:04:59;17.38;;;16.05;;
69937;SDS011;57248;47.320;15.998;2022-07-25T12:07:39;17.92;;;16.52;;
69937;SDS011;57248;47.320;15.998;2022-07-25T12:10:13;18.60;;;17.30;;
69937;SDS011;57248;47.320;15.998;2022-07-25T12:12:42;18.93;;;17.53;;
69937;SDS011;57248;47.320;15.998;2022-07-25T12:15:15;18.77;;;17.38;;
69937;SDS011;57248;47.320;15.998;2022-07-25T12:17:43;17.80;;;16.38;;
69937;SDS011;57248;47.320;15.998;2022-07-25T12:20:12;17.73;;;16.42;;
69937;SDS011;57248;47.320;15.998;2022-07-25T12:22:39;17.60;;;16.30;;
69937;SDS011;57248;47.320;15.998;2022-07-25T12:25:04;17.80;;;16.30;;
69937;SDS011;57248;47.320;15.998;2022-07-25T12:27:30;19.23;;;17.83;;
69937;SDS011;57248;47.320;15.998;2022-07-25T12:29:56;20.00;;;18.50;;
69937;SDS011;57248;47.320;15.998;2022-07-25T12:32:22;19.10;;;17.70;;
69937;SDS011;57248;47.320;15.998;2022-07-25T12:34:48;20.43;;;18.83;;
69937;SDS011;57248;47.320;15.998;2022-07-25T12:37:13;19.52;;;17.92;;
69937;SDS011;57248;47.320;15.998;2022-07-25T12:39:39;20.57;;;18.97;;
69937;SDS011;57248;47.320;15.998;2022-07-25T12:42:04;20.40;;;18.97;;
69937;SDS011;57248;47.320;15.998;2022-07-25T12:44:30;18.92;;;17.52;;
69937;SDS011;57248;47.320;15.998;2022-07-25T12:46:55;17.90;;;16.50;;
69937;SDS011;57248;47.320;15.998;2022-07-25T12:49:21;18.83;;;17.43;;
69937;SDS011;57248;47.320;15.998;2022-07-25T12:51:46;17.73;;;16.43;;
69937;SDS011;57248;47.320;15.998;2022-07-25T12:54:12;18.37;;;17.00;;
69937;SDS011;57248;47.320;15.998;2022-07-25T12:56:40;18.52;;;17.23;;
69937;SDS011;57248;47.320;15.998;2022-07-25T12:59:05;18.48;;;17.02;;
69937;SDS011;57248;47.320;15.998;2022-07-25T13:01:31;17.73;;;16.30;;
69937;SDS011;57248;47.320;15.998;2022-07-25T13:03:58;17.20;;;15.75;;
69937;SDS011;57248;47.320;15.998;2022-07-25T13:06:23;18.27;;;16.87;;
69937;SDS011;57248;47.320;15.998;2022-07-25T13:08:49;18.47;;;16.93;;
69937;SDS011;57248;47.320;15.998;2022-07-25T13:11:15;16.93;;;15.63;;
69937;SDS011;57248;47.320;15.998;2022-07-25T13:13:40;18.13;;;16.63;;
69937;SDS011;57248;47.320;15.998;2022-07-25T13:16:06;18.25;;;16.73;;
69937;SDS011;57248;47.320;15.998;2022-07-25T13:18:31;17.50;;;16.20;;
69937;SDS011;57248;47.320;15.998;2022-07-25T13:20:57;18.05;;;16.48;;
69937;SDS011;57248;47.320;15.998;2022-07-25T13:23:24;18.45;;;16.92;;
69937;SDS011;57248;47.320;15.998;2022-07-25T13:25:50;17.10;;;15.70;;
69937;SDS011;57248;47.320;15.998;2022-07-25T13:28:16;17.45;;;16.08;;
69937;SDS011;57248;47.320;15.998;2022-07-25T13:30:42;18.13;;;16.73;;
69937;SDS011;57248;47.320;15.998;2022-07-25T13:33:07;17.85;;;16.45;;
69937;SDS011;57248;47.320;15.998;2022-07-25T13:35:34;17.30;;;15.90;;
69937;SDS011;57248;47.320;15.998;2022-07-25T13:38:00;17.13;;;15.73;;
69937;SDS011;57248;47.320;15.998;2022-07-25T13:40:25;16.00;;;14.80;;
69937;SDS011;57248;47.320;15.998;2022-07-25T13:42:51;18.05;;;16.50;;
69937;SDS011;57248;47.320;15.998;2022-07-25T13:45:17;15.93;;;14.73;;
69937;SDS011;57248;47.320;15.998;2022-07-25T13:47:42;16.98;;;15.60;;
69937;SDS011;57248;47.320;15.998;2022-07-25T13:50:09;17.47;;;15.97;;
69937;SDS011;57248;47.320;15.998;2022-07-25T13:52:35;16.92;;;15.63;;
69937;SDS011;57248;47.320;15.998;2022-07-25T13:55:02;16.85;;;15.55;;
69937;SDS011;57248;47.320;15.998;2022-07-25T13:57:27;16.87;;;15.37;;
69937;SDS011;57248;47.320;15.998;2022-07-25T13:59:53;16.45;;;15.15;;
69937;SDS011;57248;47.320;15.998;2022-07-25T14:02:18;17.23;;;15.77;;
69937;SDS011;57248;47.320;15.998;2022-07-25T14:04:44;16.77;;;15.47;;
69937;SDS011;57248;47.320;15.998;2022-07-25T14:07:10;17.00;;;15.60;;
69937;SDS011;57248;47.320;15.998;2022-07-25T14:09:36;16.85;;;15.45;;
69937;SDS011;57248;47.320;15.998;2022-07-25T14:12:02;16.13;;;14.83;;
69937;SDS011;57248;47.320;15.998;2022-07-25T14:14:27;16.23;;;14.93;;
69937;SDS011;57248;47.320;15.998;2022-07-25T14:16:53;16.30;;;15.10;;
69937;SDS011;57248;47.320;15.998;2022-07-25T14:19:19;16.25;;;15.13;;
69937;SDS011;57248;47.320;15.998;2022-07-25T14:21:45;17.57;;;16.27;;
69937;SDS011;57248;47.320;15.998;2022-07-25T14:24:10;16.60;;;15.30;;